createdAt,value
2022-08-20T00:02:06.745Z,16.60
2022-08-20T00:06:59.997Z,19.77
2022-08-20T00:11:52.211Z,18.43
2022-08-20T00:16:44.507Z,20.67
2022-08-20T00:21:37.395Z,17.03
2022-08-20T00:26:29.690Z,18.50
2022-08-20T00:31:24.114Z,19.17
2022-08-20T00:36:17.691Z,17.00
2022-08-20T00:41:15.324Z,20.70
2022-08-20T00:46:17.361Z,20.37
2022-08-20T00:51:21.435Z,19.33
2022-08-20T00:56:15.312Z,21.03
2022-08-20T01:01:09.605Z,21.20
2022-08-20T01:06:02.028Z,24.80
2022-08-20T01:11:10.482Z,22.37
2022-08-20T01:16:04.592Z,21.67
2022-08-20T01:21:00.219Z,24.60
2022-08-20T01:26:08.809Z,25.10
2022-08-20T01:31:01.201Z,24.87
2022-08-20T01:35:54.097Z,23.83
2022-08-20T01:40:52.175Z,26.90
2022-08-20T01:45:44.950Z,25.63
2022-08-20T01:50:41.862Z,29.33
2022-08-20T01:55:34.065Z,29.63
2022-08-20T02:06:56.462Z,31.80
2022-08-20T02:11:49.735Z,33.63
2022-08-20T02:16:44.261Z,30.17
2022-08-20T02:21:51.871Z,30.17
2022-08-20T02:26:44.642Z,32.97
2022-08-20T02:31:38.262Z,33.20
2022-08-20T02:36:50.573Z,33.00
2022-08-20T02:41:43.085Z,34.33
2022-08-20T02:46:35.821Z,35.53
2022-08-20T02:51:30.542Z,35.67
2022-08-20T02:56:23.060Z,36.47
2022-08-20T03:01:20.108Z,35.43
2022-08-20T03:06:14.781Z,36.17
2022-08-20T03:11:07.606Z,35.17
2022-08-20T03:16:02.277Z,32.53
2022-08-20T03:20:54.611Z,30.93
2022-08-20T03:25:48.584Z,27.77
2022-08-20T03:30:42.160Z,26.73
2022-08-20T03:35:36.116Z,29.43
2022-08-20T03:40:32.889Z,32.37
2022-08-20T03:45:27.186Z,33.67
2022-08-20T03:50:23.865Z,33.60
2022-08-20T03:55:16.522Z,30.73
2022-08-20T04:00:09.288Z,30.23
2022-08-20T04:05:04.612Z,30.90
2022-08-20T04:09:57.612Z,29.80
2022-08-20T04:14:50.534Z,30.00
2022-08-20T04:19:43.632Z,25.17
2022-08-20T04:24:37.384Z,26.73
2022-08-20T04:29:31.999Z,24.23
2022-08-20T04:34:25.161Z,24.47
2022-08-20T04:39:17.942Z,21.93
2022-08-20T04:44:11.229Z,17.33
2022-08-20T04:49:04.581Z,20.37
2022-08-20T04:53:57.826Z,17.73
2022-08-20T04:58:51.358Z,16.83
2022-08-20T05:03:44.007Z,15.87
2022-08-20T05:08:38.794Z,16.43
2022-08-20T05:13:31.152Z,16.67
2022-08-20T05:18:26.498Z,17.40
2022-08-20T05:23:20.278Z,17.20
2022-08-20T05:28:18.607Z,17.10
2022-08-20T05:33:14.085Z,18.60
2022-08-20T05:38:10.472Z,20.00
2022-08-20T05:43:04.497Z,21.97
2022-08-20T05:47:57.500Z,22.07
2022-08-20T05:52:49.999Z,23.60
2022-08-20T05:57:42.737Z,26.07
2022-08-20T06:02:53.648Z,25.00
2022-08-20T06:07:46.373Z,23.80
2022-08-20T06:12:38.873Z,22.30
2022-08-20T06:17:39.419Z,23.00
2022-08-20T06:22:32.781Z,29.70
2022-08-20T06:27:25.230Z,19.90
2022-08-20T06:32:28.820Z,21.73
2022-08-20T06:37:31.203Z,22.87
2022-08-20T06:42:23.966Z,23.20
2022-08-20T06:47:21.141Z,26.03
2022-08-20T06:52:17.422Z,22.53
2022-08-20T06:57:10.126Z,24.37
2022-08-20T07:02:02.737Z,27.73
2022-08-20T07:06:55.722Z,28.07
2022-08-20T07:11:49.408Z,30.13
2022-08-20T07:16:41.903Z,31.30
2022-08-20T07:21:35.267Z,31.90
2022-08-20T07:26:29.162Z,30.40
2022-08-20T07:31:40.014Z,32.07
2022-08-20T07:36:34.809Z,33.73
2022-08-20T07:41:27.238Z,31.63
2022-08-20T07:46:21.814Z,34.03
2022-08-20T07:51:17.947Z,31.10
2022-08-20T07:56:16.228Z,31.10
2022-08-20T08:01:12.026Z,29.73
2022-08-20T08:06:04.746Z,29.13
2022-08-20T08:11:00.908Z,31.40
2022-08-20T08:15:59.448Z,30.43
2022-08-20T08:20:53.806Z,29.63
2022-08-20T08:25:46.145Z,30.63
2022-08-20T08:30:43.320Z,31.37
2022-08-20T08:35:38.446Z,31.20
2022-08-20T08:40:34.580Z,30.97
2022-08-20T08:45:45.312Z,31.77
2022-08-20T08:50:54.140Z,30.63
2022-08-20T08:55:47.177Z,34.27
2022-08-20T09:00:48.779Z,33.63
2022-08-20T09:05:55.148Z,33.70
2022-08-20T09:10:47.430Z,33.67
2022-08-20T09:15:40.178Z,34.07
2022-08-20T09:20:32.522Z,32.50
2022-08-20T09:25:25.392Z,32.67
2022-08-20T09:30:18.592Z,31.90
2022-08-20T09:35:11.252Z,33.30
2022-08-20T09:40:06.384Z,31.73
2022-08-20T09:45:02.698Z,33.53
2022-08-20T09:49:55.887Z,30.37
2022-08-20T09:54:48.358Z,31.93
2022-08-20T09:59:43.596Z,27.77
2022-08-20T10:04:36.085Z,27.40
2022-08-20T10:09:28.744Z,27.43
2022-08-20T10:14:23.917Z,27.50
2022-08-20T10:19:16.869Z,27.97
2022-08-20T10:24:09.115Z,26.77
2022-08-20T10:29:01.534Z,29.87
2022-08-20T10:33:53.844Z,27.40
2022-08-20T10:38:46.510Z,29.30
2022-08-20T10:43:38.786Z,28.47
2022-08-20T10:48:31.390Z,30.00
2022-08-20T10:53:23.807Z,28.23
2022-08-20T10:58:16.133Z,28.53
2022-08-20T11:03:09.025Z,29.50
2022-08-20T11:08:04.088Z,27.73
2022-08-20T11:12:57.055Z,29.20
2022-08-20T11:17:49.527Z,29.20
2022-08-20T11:22:41.799Z,28.03
2022-08-20T11:27:44.408Z,30.03
2022-08-20T11:32:39.057Z,29.40
2022-08-20T11:37:31.762Z,29.67
2022-08-20T11:42:24.079Z,28.83
2022-08-20T11:47:26.321Z,28.67
2022-08-20T11:52:18.674Z,33.40
2022-08-20T11:57:11.417Z,32.50
2022-08-20T12:02:03.819Z,32.80
2022-08-20T12:06:56.586Z,30.53
2022-08-20T12:11:52.772Z,32.07
2022-08-20T12:16:45.146Z,34.40
2022-08-20T12:21:37.428Z,34.57
2022-08-20T12:26:29.657Z,31.67
2022-08-20T12:31:21.970Z,32.37
2022-08-20T12:36:15.251Z,34.67
2022-08-20T12:41:07.479Z,34.27
2022-08-20T12:45:59.792Z,34.70
2022-08-20T12:50:52.955Z,37.10
2022-08-20T12:56:41.951Z,36.43
2022-08-20T13:02:49.009Z,35.17
2022-08-20T13:08:57.246Z,35.77
2022-08-20T13:15:04.459Z,33.90
2022-08-20T13:21:11.578Z,33.20
2022-08-20T13:27:18.774Z,32.20
2022-08-20T13:33:26.109Z,30.30
2022-08-20T13:39:33.404Z,22.00
2022-08-20T13:45:40.147Z,20.63
2022-08-20T13:51:47.103Z,22.70
2022-08-20T13:58:00.301Z,27.50
2022-08-20T14:04:07.408Z,33.03
2022-08-20T14:10:14.600Z,27.33
2022-08-20T14:16:27.406Z,15.30
2022-08-20T14:22:37.151Z,13.10
2022-08-20T14:28:43.995Z,14.50
2022-08-20T14:34:51.316Z,15.50
2022-08-20T14:40:58.439Z,15.27
2022-08-20T14:47:05.531Z,15.97
2022-08-20T14:52:58.133Z,16.70
2022-08-20T14:57:51.083Z,18.97
2022-08-20T15:02:43.666Z,18.40
2022-08-20T15:07:40.474Z,19.07
2022-08-20T15:12:35.415Z,21.83
2022-08-20T15:17:30.109Z,22.60
2022-08-20T15:22:23.604Z,22.83
2022-08-20T15:27:22.658Z,22.27
2022-08-20T15:32:16.013Z,24.10
2022-08-20T15:37:20.031Z,25.63
2022-08-20T15:42:13.191Z,26.03
2022-08-20T15:47:31.561Z,24.13
2022-08-20T15:52:26.449Z,25.87
2022-08-20T15:57:53.510Z,24.63
2022-08-20T16:03:29.142Z,22.63
2022-08-20T16:09:36.243Z,28.63
2022-08-20T16:15:46.298Z,26.17
2022-08-20T16:21:56.736Z,26.53
2022-08-20T16:28:04.811Z,24.87
2022-08-20T16:34:34.470Z,23.23
2022-08-20T16:40:41.749Z,21.77
2022-08-20T16:46:48.943Z,24.97
2022-08-20T16:52:56.432Z,23.73
2022-08-20T16:59:04.425Z,23.03
2022-08-20T17:05:12.784Z,22.40
2022-08-20T17:11:20.141Z,26.70
2022-08-20T17:17:27.487Z,27.87
2022-08-20T17:23:49.162Z,24.37
2022-08-20T17:30:03.313Z,27.97
2022-08-20T17:36:10.290Z,23.90
2022-08-20T17:42:17.380Z,24.30
2022-08-20T17:48:25.843Z,25.63
2022-08-20T17:54:34.062Z,29.40
2022-08-20T18:00:41.194Z,32.17
2022-08-20T18:06:32.108Z,27.97
2022-08-20T18:11:42.774Z,26.60
2022-08-20T18:16:50.999Z,27.80
2022-08-20T18:21:57.614Z,27.47
2022-08-20T18:26:55.031Z,26.43
2022-08-20T18:31:56.516Z,30.73
2022-08-20T18:36:57.668Z,30.73
2022-08-20T18:42:10.037Z,32.90
2022-08-20T18:47:04.184Z,34.03
2022-08-20T18:51:57.779Z,34.97
2022-08-20T18:57:06.954Z,34.70
2022-08-20T19:01:59.427Z,33.37
2022-08-20T19:07:03.120Z,31.73
2022-08-20T19:12:14.746Z,28.97
2022-08-20T19:17:09.983Z,30.43
2022-08-20T19:22:03.732Z,31.27
2022-08-20T19:27:08.488Z,29.13
2022-08-20T19:32:03.838Z,29.03
2022-08-20T19:37:09.058Z,29.93
2022-08-20T19:42:28.319Z,27.80
2022-08-20T19:47:32.237Z,29.03
2022-08-20T19:52:57.001Z,32.53
2022-08-20T19:57:54.926Z,29.17
2022-08-20T20:02:47.908Z,28.53
2022-08-20T20:07:52.621Z,27.97
2022-08-20T20:12:47.680Z,29.83
2022-08-20T20:17:40.645Z,28.20
2022-08-20T20:22:46.897Z,29.10
2022-08-20T20:27:39.525Z,28.17
2022-08-20T20:32:34.285Z,33.77
2022-08-20T20:37:49.506Z,32.63
2022-08-20T20:42:43.875Z,31.87
2022-08-20T20:47:36.836Z,31.10
2022-08-20T20:52:36.040Z,30.40
2022-08-20T20:57:37.940Z,31.17
2022-08-20T21:02:31.637Z,30.33
2022-08-20T21:07:25.286Z,34.73
2022-08-20T21:12:19.053Z,35.57
2022-08-20T21:17:15.471Z,35.93
2022-08-20T21:22:09.304Z,32.77
2022-08-20T21:27:03.828Z,36.17
2022-08-20T21:31:57.146Z,31.83
2022-08-20T21:36:50.124Z,37.37
2022-08-20T21:41:44.223Z,35.23
2022-08-20T21:46:36.496Z,32.43
2022-08-20T21:51:28.765Z,29.70
2022-08-20T21:56:26.348Z,34.17
2022-08-20T22:01:18.577Z,32.57
2022-08-20T22:06:14.776Z,33.60
2022-08-20T22:11:10.130Z,39.30
2022-08-20T22:16:08.478Z,35.97
2022-08-20T22:21:01.107Z,36.23
2022-08-20T22:25:53.448Z,35.90
2022-08-20T22:30:45.931Z,36.63
2022-08-20T22:35:45.106Z,40.90
2022-08-20T22:40:37.317Z,36.40
2022-08-20T22:45:29.890Z,42.57
2022-08-20T22:50:24.435Z,39.47
2022-08-20T22:55:17.228Z,34.73
2022-08-20T23:00:15.598Z,30.93
2022-08-20T23:05:13.928Z,33.07
2022-08-20T23:10:06.605Z,35.53
2022-08-20T23:14:58.967Z,30.70
2022-08-20T23:19:52.035Z,32.40
2022-08-20T23:24:44.954Z,30.17
2022-08-20T23:29:37.424Z,29.27
2022-08-20T23:34:29.714Z,33.47
2022-08-20T23:39:25.001Z,35.03
2022-08-20T23:44:25.430Z,33.10
2022-08-20T23:49:19.318Z,31.77
2022-08-20T23:54:11.656Z,39.27
2022-08-20T23:59:05.295Z,39.23
